sensor_id;sensor_type;location;lat;lon;timestamp;P1;durP1;ratioP1;P2;durP2;ratioP2
45522;SDS011;31254;51.680;5.394;2022-07-03T00:01:26;17.17;;;6.47;;
45522;SDS011;31254;51.680;5.394;2022-07-03T00:03:53;10.65;;;6.45;;
45522;SDS011;31254;51.680;5.394;2022-07-03T00:06:19;13.88;;;6.47;;
45522;SDS011;31254;51.680;5.394;2022-07-03T00:08:46;17.48;;;5.85;;
45522;SDS011;31254;51.680;5.394;2022-07-03T00:11:13;8.05;;;4.53;;
45522;SDS011;31254;51.680;5.394;2022-07-03T00:13:41;10.80;;;4.05;;
45522;SDS011;31254;51.680;5.394;2022-07-03T00:16:07;5.95;;;3.72;;
45522;SDS011;31254;51.680;5.394;2022-07-03T00:18:36;8.55;;;3.72;;
45522;SDS011;31254;51.680;5.394;2022-07-03T00:21:05;5.78;;;3.42;;
45522;SDS011;31254;51.680;5.394;2022-07-03T00:23:56;9.07;;;3.72;;
45522;SDS011;31254;51.680;5.394;2022-07-03T00:26:34;10.13;;;4.47;;
45522;SDS011;31254;51.680;5.394;2022-07-03T00:29:05;7.30;;;4.47;;
45522;SDS011;31254;51.680;5.394;2022-07-03T00:31:33;7.97;;;4.60;;
45522;SDS011;31254;51.680;5.394;2022-07-03T00:34:00;5.97;;;4.22;;
45522;SDS011;31254;51.680;5.394;2022-07-03T00:36:35;6.35;;;4.72;;
45522;SDS011;31254;51.680;5.394;2022-07-03T00:39:04;8.07;;;4.25;;
45522;SDS011;31254;51.680;5.394;2022-07-03T00:41:31;8.75;;;4.40;;
45522;SDS011;31254;51.680;5.394;2022-07-03T00:44:00;7.43;;;4.07;;
45522;SDS011;31254;51.680;5.394;2022-07-03T00:46:27;10.00;;;4.22;;
45522;SDS011;31254;51.680;5.394;2022-07-03T00:48:55;4.97;;;3.70;;
45522;SDS011;31254;51.680;5.394;2022-07-03T00:51:27;11.43;;;3.80;;
45522;SDS011;31254;51.680;5.394;2022-07-03T00:53:55;6.70;;;3.95;;
45522;SDS011;31254;51.680;5.394;2022-07-03T00:56:30;7.28;;;4.00;;
45522;SDS011;31254;51.680;5.394;2022-07-03T00:58:58;5.20;;;4.13;;
45522;SDS011;31254;51.680;5.394;2022-07-03T01:01:30;6.15;;;4.50;;
45522;SDS011;31254;51.680;5.394;2022-07-03T01:04:10;7.28;;;4.28;;
45522;SDS011;31254;51.680;5.394;2022-07-03T01:06:53;8.35;;;4.40;;
45522;SDS011;31254;51.680;5.394;2022-07-03T01:09:36;6.53;;;4.30;;
45522;SDS011;31254;51.680;5.394;2022-07-03T01:12:16;5.22;;;3.63;;
45522;SDS011;31254;51.680;5.394;2022-07-03T01:15:01;6.15;;;4.63;;
45522;SDS011;31254;51.680;5.394;2022-07-03T01:17:48;8.63;;;4.50;;
45522;SDS011;31254;51.680;5.394;2022-07-03T01:20:39;7.30;;;4.38;;
45522;SDS011;31254;51.680;5.394;2022-07-03T01:23:18;5.15;;;3.70;;
45522;SDS011;31254;51.680;5.394;2022-07-03T01:25:57;5.90;;;4.20;;
45522;SDS011;31254;51.680;5.394;2022-07-03T01:28:29;7.00;;;3.92;;
45522;SDS011;31254;51.680;5.394;2022-07-03T01:31:01;9.68;;;3.75;;
45522;SDS011;31254;51.680;5.394;2022-07-03T01:33:31;7.10;;;4.47;;
45522;SDS011;31254;51.680;5.394;2022-07-03T01:38:29;6.00;;;4.00;;
45522;SDS011;31254;51.680;5.394;2022-07-03T01:41:00;8.10;;;4.00;;
45522;SDS011;31254;51.680;5.394;2022-07-03T01:43:29;7.13;;;4.10;;
45522;SDS011;31254;51.680;5.394;2022-07-03T01:46:01;7.00;;;3.95;;
45522;SDS011;31254;51.680;5.394;2022-07-03T01:48:30;6.13;;;4.20;;
45522;SDS011;31254;51.680;5.394;2022-07-03T01:50:58;13.90;;;3.53;;
45522;SDS011;31254;51.680;5.394;2022-07-03T01:53:27;8.43;;;4.72;;
45522;SDS011;31254;51.680;5.394;2022-07-03T01:55:58;9.60;;;5.03;;
45522;SDS011;31254;51.680;5.394;2022-07-03T01:58:26;7.45;;;5.50;;
45522;SDS011;31254;51.680;5.394;2022-07-03T02:03:31;9.15;;;5.70;;
45522;SDS011;31254;51.680;5.394;2022-07-03T02:08:48;9.05;;;5.72;;
45522;SDS011;31254;51.680;5.394;2022-07-03T02:11:41;9.55;;;4.72;;
45522;SDS011;31254;51.680;5.394;2022-07-03T02:14:14;12.45;;;5.00;;
45522;SDS011;31254;51.680;5.394;2022-07-03T02:17:17;7.35;;;4.25;;
45522;SDS011;31254;51.680;5.394;2022-07-03T02:22:20;10.48;;;4.28;;
45522;SDS011;31254;51.680;5.394;2022-07-03T02:24:51;9.63;;;4.20;;
45522;SDS011;31254;51.680;5.394;2022-07-03T02:27:25;6.22;;;3.97;;
45522;SDS011;31254;51.680;5.394;2022-07-03T02:29:59;5.53;;;4.00;;
45522;SDS011;31254;51.680;5.394;2022-07-03T02:32:30;7.03;;;4.00;;
45522;SDS011;31254;51.680;5.394;2022-07-03T02:35:02;8.88;;;3.58;;
45522;SDS011;31254;51.680;5.394;2022-07-03T02:37:33;7.47;;;4.03;;
45522;SDS011;31254;51.680;5.394;2022-07-03T02:42:56;5.95;;;3.58;;
45522;SDS011;31254;51.680;5.394;2022-07-03T02:45:32;7.47;;;4.00;;
45522;SDS011;31254;51.680;5.394;2022-07-03T02:48:08;6.20;;;4.25;;
45522;SDS011;31254;51.680;5.394;2022-07-03T02:50:43;6.15;;;4.30;;
45522;SDS011;31254;51.680;5.394;2022-07-03T02:53:22;10.20;;;4.95;;
45522;SDS011;31254;51.680;5.394;2022-07-03T02:55:58;7.30;;;4.40;;
45522;SDS011;31254;51.680;5.394;2022-07-03T02:58:44;6.55;;;4.50;;
45522;SDS011;31254;51.680;5.394;2022-07-03T03:01:47;8.43;;;4.25;;
45522;SDS011;31254;51.680;5.394;2022-07-03T03:04:24;7.80;;;4.50;;
45522;SDS011;31254;51.680;5.394;2022-07-03T03:07:02;9.32;;;4.70;;
45522;SDS011;31254;51.680;5.394;2022-07-03T03:09:35;8.73;;;4.53;;
45522;SDS011;31254;51.680;5.394;2022-07-03T03:12:10;7.85;;;4.80;;
45522;SDS011;31254;51.680;5.394;2022-07-03T03:14:42;9.60;;;4.65;;
45522;SDS011;31254;51.680;5.394;2022-07-03T03:17:18;7.25;;;4.40;;
45522;SDS011;31254;51.680;5.394;2022-07-03T03:19:52;7.82;;;4.50;;
45522;SDS011;31254;51.680;5.394;2022-07-03T03:25:19;6.72;;;4.65;;
45522;SDS011;31254;51.680;5.394;2022-07-03T03:27:46;7.10;;;4.70;;
45522;SDS011;31254;51.680;5.394;2022-07-03T03:30:15;8.70;;;4.43;;
45522;SDS011;31254;51.680;5.394;2022-07-03T03:32:41;7.50;;;4.07;;
45522;SDS011;31254;51.680;5.394;2022-07-03T03:35:11;7.35;;;4.45;;
45522;SDS011;31254;51.680;5.394;2022-07-03T03:37:37;5.68;;;3.80;;
45522;SDS011;31254;51.680;5.394;2022-07-03T03:40:04;6.38;;;3.72;;
45522;SDS011;31254;51.680;5.394;2022-07-03T03:42:31;8.57;;;3.92;;
45522;SDS011;31254;51.680;5.394;2022-07-03T03:44:58;7.93;;;4.30;;
45522;SDS011;31254;51.680;5.394;2022-07-03T03:47:24;7.68;;;4.60;;
45522;SDS011;31254;51.680;5.394;2022-07-03T03:49:51;5.90;;;4.07;;
45522;SDS011;31254;51.680;5.394;2022-07-03T03:52:20;7.95;;;3.95;;
45522;SDS011;31254;51.680;5.394;2022-07-03T03:54:47;7.18;;;3.55;;
45522;SDS011;31254;51.680;5.394;2022-07-03T03:59:44;7.95;;;3.63;;
45522;SDS011;31254;51.680;5.394;2022-07-03T04:02:11;7.85;;;3.45;;
45522;SDS011;31254;51.680;5.394;2022-07-03T04:04:38;6.28;;;3.78;;
45522;SDS011;31254;51.680;5.394;2022-07-03T04:07:05;6.10;;;3.10;;
45522;SDS011;31254;51.680;5.394;2022-07-03T04:09:32;5.05;;;3.22;;
45522;SDS011;31254;51.680;5.394;2022-07-03T04:12:01;5.55;;;3.30;;
45522;SDS011;31254;51.680;5.394;2022-07-03T04:14:28;7.93;;;3.00;;
45522;SDS011;31254;51.680;5.394;2022-07-03T04:16:54;4.40;;;2.63;;
45522;SDS011;31254;51.680;5.394;2022-07-03T04:19:21;7.20;;;2.88;;
45522;SDS011;31254;51.680;5.394;2022-07-03T04:21:49;5.18;;;3.08;;
45522;SDS011;31254;51.680;5.394;2022-07-03T04:24:18;6.95;;;2.83;;
45522;SDS011;31254;51.680;5.394;2022-07-03T04:26:44;5.18;;;2.67;;
45522;SDS011;31254;51.680;5.394;2022-07-03T04:29:11;5.93;;;2.67;;
45522;SDS011;31254;51.680;5.394;2022-07-03T04:31:40;6.70;;;3.03;;
45522;SDS011;31254;51.680;5.394;2022-07-03T04:34:07;5.90;;;2.50;;
45522;SDS011;31254;51.680;5.394;2022-07-03T04:36:33;3.78;;;2.10;;
45522;SDS011;31254;51.680;5.394;2022-07-03T04:39:00;5.07;;;2.22;;
45522;SDS011;31254;51.680;5.394;2022-07-03T04:41:26;4.25;;;2.30;;
45522;SDS011;31254;51.680;5.394;2022-07-03T04:43:56;4.70;;;2.28;;
45522;SDS011;31254;51.680;5.394;2022-07-03T04:46:22;5.15;;;2.08;;
45522;SDS011;31254;51.680;5.394;2022-07-03T04:48:52;5.03;;;2.47;;
45522;SDS011;31254;51.680;5.394;2022-07-03T04:51:19;4.15;;;1.85;;
45522;SDS011;31254;51.680;5.394;2022-07-03T04:53:45;4.18;;;2.38;;
45522;SDS011;31254;51.680;5.394;2022-07-03T04:56:12;5.13;;;2.28;;
45522;SDS011;31254;51.680;5.394;2022-07-03T04:58:38;4.00;;;2.03;;
45522;SDS011;31254;51.680;5.394;2022-07-03T05:01:05;5.82;;;1.90;;
45522;SDS011;31254;51.680;5.394;2022-07-03T05:03:32;3.42;;;1.67;;
45522;SDS011;31254;51.680;5.394;2022-07-03T05:05:58;4.20;;;1.70;;
45522;SDS011;31254;51.680;5.394;2022-07-03T05:08:25;4.47;;;2.10;;
45522;SDS011;31254;51.680;5.394;2022-07-03T05:10:52;4.65;;;1.70;;
45522;SDS011;31254;51.680;5.394;2022-07-03T05:13:21;3.90;;;1.73;;
45522;SDS011;31254;51.680;5.394;2022-07-03T05:15:47;5.13;;;2.08;;
45522;SDS011;31254;51.680;5.394;2022-07-03T05:18:16;6.55;;;1.92;;
45522;SDS011;31254;51.680;5.394;2022-07-03T05:20:47;2.13;;;1.52;;
45522;SDS011;31254;51.680;5.394;2022-07-03T05:23:16;4.32;;;1.70;;
45522;SDS011;31254;51.680;5.394;2022-07-03T05:25:43;3.72;;;1.85;;
45522;SDS011;31254;51.680;5.394;2022-07-03T05:28:09;4.28;;;1.85;;
45522;SDS011;31254;51.680;5.394;2022-07-03T05:30:36;3.63;;;1.83;;
45522;SDS011;31254;51.680;5.394;2022-07-03T05:33:03;3.03;;;1.65;;
45522;SDS011;31254;51.680;5.394;2022-07-03T05:35:32;3.85;;;1.75;;
45522;SDS011;31254;51.680;5.394;2022-07-03T05:37:59;5.13;;;2.10;;
45522;SDS011;31254;51.680;5.394;2022-07-03T05:40:28;5.78;;;1.83;;
45522;SDS011;31254;51.680;5.394;2022-07-03T05:42:54;4.10;;;2.10;;
45522;SDS011;31254;51.680;5.394;2022-07-03T05:45:21;3.72;;;1.77;;
45522;SDS011;31254;51.680;5.394;2022-07-03T05:47:48;6.55;;;1.90;;
45522;SDS011;31254;51.680;5.394;2022-07-03T05:50:14;5.60;;;1.30;;
45522;SDS011;31254;51.680;5.394;2022-07-03T05:52:41;4.32;;;1.50;;
45522;SDS011;31254;51.680;5.394;2022-07-03T05:55:08;3.00;;;1.58;;
45522;SDS011;31254;51.680;5.394;2022-07-03T05:57:35;5.57;;;1.20;;
45522;SDS011;31254;51.680;5.394;2022-07-03T06:00:04;2.83;;;1.35;;
45522;SDS011;31254;51.680;5.394;2022-07-03T06:02:34;4.97;;;1.08;;
45522;SDS011;31254;51.680;5.394;2022-07-03T06:05:01;4.50;;;1.15;;
45522;SDS011;31254;51.680;5.394;2022-07-03T06:07:27;4.43;;;1.30;;
45522;SDS011;31254;51.680;5.394;2022-07-03T06:09:54;3.97;;;0.98;;
45522;SDS011;31254;51.680;5.394;2022-07-03T06:12:23;4.30;;;1.00;;
45522;SDS011;31254;51.680;5.394;2022-07-03T06:14:52;5.60;;;1.15;;
45522;SDS011;31254;51.680;5.394;2022-07-03T06:17:25;3.47;;;1.17;;
45522;SDS011;31254;51.680;5.394;2022-07-03T06:19:51;7.13;;;1.60;;
45522;SDS011;31254;51.680;5.394;2022-07-03T06:22:18;6.25;;;1.52;;
45522;SDS011;31254;51.680;5.394;2022-07-03T06:24:48;3.83;;;1.30;;
45522;SDS011;31254;51.680;5.394;2022-07-03T06:27:14;4.68;;;1.10;;
45522;SDS011;31254;51.680;5.394;2022-07-03T06:29:41;2.75;;;0.90;;
45522;SDS011;31254;51.680;5.394;2022-07-03T06:32:08;1.88;;;0.80;;
45522;SDS011;31254;51.680;5.394;2022-07-03T06:34:35;2.33;;;0.90;;
45522;SDS011;31254;51.680;5.394;2022-07-03T06:37:01;3.30;;;0.90;;
45522;SDS011;31254;51.680;5.394;2022-07-03T06:39:28;2.60;;;1.10;;
45522;SDS011;31254;51.680;5.394;2022-07-03T06:41:54;3.72;;;1.30;;
45522;SDS011;31254;51.680;5.394;2022-07-03T06:44:21;4.85;;;1.30;;
45522;SDS011;31254;51.680;5.394;2022-07-03T06:46:48;5.18;;;1.10;;
45522;SDS011;31254;51.680;5.394;2022-07-03T06:49:17;5.43;;;1.30;;
45522;SDS011;31254;51.680;5.394;2022-07-03T06:51:43;5.53;;;1.30;;
45522;SDS011;31254;51.680;5.394;2022-07-03T06:54:10;4.30;;;1.13;;
45522;SDS011;31254;51.680;5.394;2022-07-03T06:56:37;4.00;;;1.10;;
45522;SDS011;31254;51.680;5.394;2022-07-03T06:59:04;3.50;;;1.10;;
45522;SDS011;31254;51.680;5.394;2022-07-03T07:01:30;5.68;;;1.58;;
45522;SDS011;31254;51.680;5.394;2022-07-03T07:03:57;8.05;;;2.05;;
45522;SDS011;31254;51.680;5.394;2022-07-03T07:06:24;6.85;;;1.55;;
45522;SDS011;31254;51.680;5.394;2022-07-03T07:08:51;4.65;;;1.20;;
45522;SDS011;31254;51.680;5.394;2022-07-03T07:11:17;7.72;;;1.20;;
45522;SDS011;31254;51.680;5.394;2022-07-03T07:13:44;4.05;;;1.20;;
45522;SDS011;31254;51.680;5.394;2022-07-03T07:16:10;8.63;;;1.30;;
45522;SDS011;31254;51.680;5.394;2022-07-03T07:18:39;6.32;;;1.25;;
45522;SDS011;31254;51.680;5.394;2022-07-03T07:21:06;5.03;;;1.30;;
45522;SDS011;31254;51.680;5.394;2022-07-03T07:23:33;5.35;;;1.52;;
45522;SDS011;31254;51.680;5.394;2022-07-03T07:26:00;4.80;;;1.08;;
45522;SDS011;31254;51.680;5.394;2022-07-03T07:28:27;2.75;;;1.10;;
45522;SDS011;31254;51.680;5.394;2022-07-03T07:30:54;4.75;;;1.10;;
45522;SDS011;31254;51.680;5.394;2022-07-03T07:33:22;3.95;;;1.00;;
45522;SDS011;31254;51.680;5.394;2022-07-03T07:35:49;6.20;;;1.20;;
45522;SDS011;31254;51.680;5.394;2022-07-03T07:38:16;4.22;;;1.00;;
45522;SDS011;31254;51.680;5.394;2022-07-03T07:40:44;4.80;;;0.80;;
45522;SDS011;31254;51.680;5.394;2022-07-03T07:43:10;4.63;;;0.90;;
45522;SDS011;31254;51.680;5.394;2022-07-03T07:45:37;4.20;;;0.95;;
45522;SDS011;31254;51.680;5.394;2022-07-03T07:48:04;3.88;;;0.95;;
45522;SDS011;31254;51.680;5.394;2022-07-03T07:50:31;4.47;;;1.10;;
45522;SDS011;31254;51.680;5.394;2022-07-03T07:52:57;3.95;;;0.73;;
45522;SDS011;31254;51.680;5.394;2022-07-03T07:55:26;4.25;;;1.00;;
45522;SDS011;31254;51.680;5.394;2022-07-03T07:57:53;5.50;;;1.20;;
45522;SDS011;31254;51.680;5.394;2022-07-03T08:00:20;3.72;;;0.80;;
45522;SDS011;31254;51.680;5.394;2022-07-03T08:02:48;8.60;;;1.73;;
45522;SDS011;31254;51.680;5.394;2022-07-03T08:05:33;4.97;;;1.25;;
45522;SDS011;31254;51.680;5.394;2022-07-03T08:08:08;4.50;;;1.35;;
45522;SDS011;31254;51.680;5.394;2022-07-03T08:10:40;5.97;;;0.90;;
45522;SDS011;31254;51.680;5.394;2022-07-03T08:13:09;2.55;;;0.95;;
45522;SDS011;31254;51.680;5.394;2022-07-03T08:15:37;5.28;;;0.90;;
45522;SDS011;31254;51.680;5.394;2022-07-03T08:18:04;4.88;;;0.90;;
45522;SDS011;31254;51.680;5.394;2022-07-03T08:20:31;3.22;;;0.82;;
45522;SDS011;31254;51.680;5.394;2022-07-03T08:22:59;4.03;;;1.00;;
45522;SDS011;31254;51.680;5.394;2022-07-03T08:25:26;3.28;;;0.80;;
45522;SDS011;31254;51.680;5.394;2022-07-03T08:27:53;4.07;;;0.90;;
45522;SDS011;31254;51.680;5.394;2022-07-03T08:30:19;2.75;;;0.70;;
45522;SDS011;31254;51.680;5.394;2022-07-03T08:32:50;2.83;;;0.90;;
45522;SDS011;31254;51.680;5.394;2022-07-03T08:35:17;1.88;;;0.73;;
45522;SDS011;31254;51.680;5.394;2022-07-03T08:37:44;3.67;;;0.70;;
45522;SDS011;31254;51.680;5.394;2022-07-03T08:40:13;2.30;;;0.90;;
45522;SDS011;31254;51.680;5.394;2022-07-03T08:42:47;7.45;;;1.00;;
45522;SDS011;31254;51.680;5.394;2022-07-03T08:45:16;6.22;;;0.90;;
45522;SDS011;31254;51.680;5.394;2022-07-03T08:47:45;1.67;;;0.70;;
45522;SDS011;31254;51.680;5.394;2022-07-03T08:50:14;4.35;;;0.75;;
45522;SDS011;31254;51.680;5.394;2022-07-03T08:52:42;3.88;;;1.52;;
45522;SDS011;31254;51.680;5.394;2022-07-03T08:55:09;4.38;;;0.90;;
45522;SDS011;31254;51.680;5.394;2022-07-03T08:57:40;1.50;;;0.60;;
45522;SDS011;31254;51.680;5.394;2022-07-03T09:00:08;5.00;;;0.90;;
45522;SDS011;31254;51.680;5.394;2022-07-03T09:02:40;3.70;;;0.90;;
45522;SDS011;31254;51.680;5.394;2022-07-03T09:05:10;2.15;;;0.60;;
45522;SDS011;31254;51.680;5.394;2022-07-03T09:07:38;2.53;;;0.80;;
45522;SDS011;31254;51.680;5.394;2022-07-03T09:10:08;3.72;;;0.60;;
45522;SDS011;31254;51.680;5.394;2022-07-03T09:12:37;3.95;;;0.82;;
45522;SDS011;31254;51.680;5.394;2022-07-03T09:15:04;2.28;;;0.60;;
45522;SDS011;31254;51.680;5.394;2022-07-03T09:17:33;4.43;;;0.95;;
45522;SDS011;31254;51.680;5.394;2022-07-03T09:20:01;4.32;;;0.95;;
45522;SDS011;31254;51.680;5.394;2022-07-03T09:22:32;3.05;;;0.75;;
45522;SDS011;31254;51.680;5.394;2022-07-03T09:25:10;3.03;;;0.80;;
45522;SDS011;31254;51.680;5.394;2022-07-03T09:27:39;2.33;;;0.60;;
45522;SDS011;31254;51.680;5.394;2022-07-03T09:30:18;2.13;;;0.70;;
45522;SDS011;31254;51.680;5.394;2022-07-03T09:32:45;3.95;;;1.02;;
45522;SDS011;31254;51.680;5.394;2022-07-03T09:35:24;2.17;;;0.80;;
45522;SDS011;31254;51.680;5.394;2022-07-03T09:43:29;1.92;;;0.70;;
45522;SDS011;31254;51.680;5.394;2022-07-03T09:48:25;1.65;;;0.70;;
45522;SDS011;31254;51.680;5.394;2022-07-03T09:53:50;3.45;;;0.70;;
45522;SDS011;31254;51.680;5.394;2022-07-03T09:56:44;3.40;;;0.77;;
45522;SDS011;31254;51.680;5.394;2022-07-03T09:59:13;2.45;;;0.50;;
45522;SDS011;31254;51.680;5.394;2022-07-03T10:01:42;3.80;;;0.85;;
45522;SDS011;31254;51.680;5.394;2022-07-03T10:06:49;2.40;;;0.50;;
45522;SDS011;31254;51.680;5.394;2022-07-03T10:09:21;0.98;;;0.43;;
45522;SDS011;31254;51.680;5.394;2022-07-03T10:11:49;1.73;;;0.60;;
45522;SDS011;31254;51.680;5.394;2022-07-03T10:14:17;1.02;;;0.60;;
45522;SDS011;31254;51.680;5.394;2022-07-03T10:16:46;3.65;;;0.70;;
45522;SDS011;31254;51.680;5.394;2022-07-03T10:19:14;2.90;;;0.88;;
45522;SDS011;31254;51.680;5.394;2022-07-03T10:24:21;3.20;;;0.60;;
45522;SDS011;31254;51.680;5.394;2022-07-03T10:26:52;2.17;;;0.70;;
45522;SDS011;31254;51.680;5.394;2022-07-03T10:29:20;1.13;;;0.65;;
45522;SDS011;31254;51.680;5.394;2022-07-03T10:31:54;2.05;;;0.70;;
45522;SDS011;31254;51.680;5.394;2022-07-03T10:34:24;2.97;;;0.90;;
45522;SDS011;31254;51.680;5.394;2022-07-03T10:37:02;2.33;;;0.73;;
45522;SDS011;31254;51.680;5.394;2022-07-03T10:39:32;2.35;;;0.80;;
45522;SDS011;31254;51.680;5.394;2022-07-03T10:42:05;1.65;;;0.60;;
45522;SDS011;31254;51.680;5.394;2022-07-03T10:45:06;3.60;;;0.68;;
45522;SDS011;31254;51.680;5.394;2022-07-03T10:47:38;1.92;;;0.50;;
45522;SDS011;31254;51.680;5.394;2022-07-03T10:50:16;3.17;;;0.60;;
45522;SDS011;31254;51.680;5.394;2022-07-03T10:52:43;3.83;;;0.70;;
45522;SDS011;31254;51.680;5.394;2022-07-03T10:55:11;1.92;;;0.80;;
45522;SDS011;31254;51.680;5.394;2022-07-03T10:57:40;2.88;;;0.50;;
45522;SDS011;31254;51.680;5.394;2022-07-03T11:00:15;6.53;;;0.60;;
45522;SDS011;31254;51.680;5.394;2022-07-03T11:02:46;4.35;;;0.73;;
45522;SDS011;31254;51.680;5.394;2022-07-03T11:05:18;3.83;;;0.60;;
45522;SDS011;31254;51.680;5.394;2022-07-03T11:25:43;2.33;;;0.68;;
45522;SDS011;31254;51.680;5.394;2022-07-03T11:38:42;6.07;;;0.95;;
45522;SDS011;31254;51.680;5.394;2022-07-03T11:41:11;4.57;;;0.80;;
45522;SDS011;31254;51.680;5.394;2022-07-03T11:43:49;2.83;;;0.60;;
45522;SDS011;31254;51.680;5.394;2022-07-03T11:46:17;2.40;;;0.63;;
45522;SDS011;31254;51.680;5.394;2022-07-03T11:48:46;7.75;;;1.48;;
45522;SDS011;31254;51.680;5.394;2022-07-03T11:51:15;5.97;;;1.00;;
45522;SDS011;31254;51.680;5.394;2022-07-03T11:53:42;5.35;;;1.10;;
45522;SDS011;31254;51.680;5.394;2022-07-03T11:56:09;2.20;;;0.90;;
45522;SDS011;31254;51.680;5.394;2022-07-03T11:58:48;5.57;;;1.10;;
45522;SDS011;31254;51.680;5.394;2022-07-03T12:03:48;2.78;;;0.85;;
45522;SDS011;31254;51.680;5.394;2022-07-03T12:06:19;3.13;;;0.90;;
45522;SDS011;31254;51.680;5.394;2022-07-03T12:08:46;1.75;;;0.70;;
45522;SDS011;31254;51.680;5.394;2022-07-03T12:11:14;4.20;;;0.77;;
45522;SDS011;31254;51.680;5.394;2022-07-03T12:13:42;4.53;;;1.25;;
45522;SDS011;31254;51.680;5.394;2022-07-03T12:16:10;2.72;;;0.70;;
45522;SDS011;31254;51.680;5.394;2022-07-03T12:18:43;3.53;;;0.98;;
45522;SDS011;31254;51.680;5.394;2022-07-03T12:21:20;6.32;;;0.90;;
45522;SDS011;31254;51.680;5.394;2022-07-03T12:23:52;3.20;;;0.82;;
45522;SDS011;31254;51.680;5.394;2022-07-03T12:26:27;3.08;;;0.98;;
45522;SDS011;31254;51.680;5.394;2022-07-03T12:28:58;2.17;;;0.90;;
45522;SDS011;31254;51.680;5.394;2022-07-03T12:31:26;2.78;;;1.00;;
45522;SDS011;31254;51.680;5.394;2022-07-03T12:33:55;3.28;;;1.20;;
45522;SDS011;31254;51.680;5.394;2022-07-03T12:36:25;4.40;;;1.35;;
45522;SDS011;31254;51.680;5.394;2022-07-03T12:38:52;2.97;;;1.10;;
45522;SDS011;31254;51.680;5.394;2022-07-03T12:41:22;4.28;;;1.20;;
45522;SDS011;31254;51.680;5.394;2022-07-03T12:43:51;4.65;;;1.38;;
45522;SDS011;31254;51.680;5.394;2022-07-03T12:46:25;5.05;;;1.30;;
45522;SDS011;31254;51.680;5.394;2022-07-03T12:48:55;2.38;;;1.08;;
45522;SDS011;31254;51.680;5.394;2022-07-03T12:54:05;7.82;;;1.50;;
45522;SDS011;31254;51.680;5.394;2022-07-03T12:56:33;4.65;;;1.00;;
45522;SDS011;31254;51.680;5.394;2022-07-03T12:59:00;4.50;;;1.15;;
45522;SDS011;31254;51.680;5.394;2022-07-03T13:01:45;2.45;;;1.10;;
45522;SDS011;31254;51.680;5.394;2022-07-03T13:04:30;2.47;;;1.25;;
45522;SDS011;31254;51.680;5.394;2022-07-03T13:07:01;2.35;;;1.33;;
45522;SDS011;31254;51.680;5.394;2022-07-03T13:09:28;4.05;;;1.30;;
45522;SDS011;31254;51.680;5.394;2022-07-03T13:11:55;3.55;;;1.52;;
45522;SDS011;31254;51.680;5.394;2022-07-03T13:14:22;2.35;;;1.40;;
45522;SDS011;31254;51.680;5.394;2022-07-03T13:16:51;4.13;;;1.20;;
45522;SDS011;31254;51.680;5.394;2022-07-03T13:19:23;1.95;;;1.10;;
45522;SDS011;31254;51.680;5.394;2022-07-03T13:21:52;1.77;;;1.00;;
45522;SDS011;31254;51.680;5.394;2022-07-03T13:24:22;4.63;;;1.20;;
45522;SDS011;31254;51.680;5.394;2022-07-03T13:26:50;2.22;;;0.98;;
45522;SDS011;31254;51.680;5.394;2022-07-03T13:29:19;4.20;;;1.33;;
45522;SDS011;31254;51.680;5.394;2022-07-03T13:31:46;4.45;;;1.23;;
45522;SDS011;31254;51.680;5.394;2022-07-03T13:34:13;3.20;;;1.30;;
45522;SDS011;31254;51.680;5.394;2022-07-03T13:36:40;3.85;;;1.50;;
45522;SDS011;31254;51.680;5.394;2022-07-03T13:39:07;3.40;;;1.20;;
45522;SDS011;31254;51.680;5.394;2022-07-03T13:41:36;4.43;;;1.27;;
45522;SDS011;31254;51.680;5.394;2022-07-03T13:44:03;4.57;;;1.25;;
45522;SDS011;31254;51.680;5.394;2022-07-03T13:46:30;2.47;;;1.00;;
45522;SDS011;31254;51.680;5.394;2022-07-03T13:48:57;2.88;;;0.90;;
45522;SDS011;31254;51.680;5.394;2022-07-03T13:51:23;5.68;;;1.52;;
45522;SDS011;31254;51.680;5.394;2022-07-03T13:53:50;4.93;;;1.48;;
45522;SDS011;31254;51.680;5.394;2022-07-03T13:56:20;7.13;;;1.25;;
45522;SDS011;31254;51.680;5.394;2022-07-03T13:58:47;3.15;;;1.38;;
45522;SDS011;31254;51.680;5.394;2022-07-03T14:01:17;5.43;;;1.70;;
45522;SDS011;31254;51.680;5.394;2022-07-03T14:03:45;6.13;;;1.00;;
45522;SDS011;31254;51.680;5.394;2022-07-03T14:06:12;5.70;;;1.33;;
45522;SDS011;31254;51.680;5.394;2022-07-03T14:08:38;4.70;;;1.17;;
45522;SDS011;31254;51.680;5.394;2022-07-03T14:11:05;2.10;;;1.20;;
45522;SDS011;31254;51.680;5.394;2022-07-03T14:13:31;3.70;;;1.02;;
45522;SDS011;31254;51.680;5.394;2022-07-03T14:15:59;1.83;;;1.10;;
45522;SDS011;31254;51.680;5.394;2022-07-03T14:18:26;5.07;;;1.20;;
45522;SDS011;31254;51.680;5.394;2022-07-03T14:20:55;4.93;;;1.15;;
45522;SDS011;31254;51.680;5.394;2022-07-03T14:23:22;2.90;;;0.90;;
45522;SDS011;31254;51.680;5.394;2022-07-03T14:25:48;4.88;;;1.50;;
45522;SDS011;31254;51.680;5.394;2022-07-03T14:28:15;2.25;;;1.35;;
45522;SDS011;31254;51.680;5.394;2022-07-03T14:31:01;3.08;;;1.15;;
45522;SDS011;31254;51.680;5.394;2022-07-03T14:33:46;2.75;;;1.00;;
45522;SDS011;31254;51.680;5.394;2022-07-03T14:36:13;3.78;;;1.00;;
45522;SDS011;31254;51.680;5.394;2022-07-03T14:38:59;2.60;;;0.85;;
45522;SDS011;31254;51.680;5.394;2022-07-03T14:41:28;4.97;;;1.00;;
45522;SDS011;31254;51.680;5.394;2022-07-03T14:43:55;2.40;;;0.80;;
45522;SDS011;31254;51.680;5.394;2022-07-03T14:46:21;4.35;;;0.85;;
45522;SDS011;31254;51.680;5.394;2022-07-03T14:48:50;1.92;;;0.90;;
45522;SDS011;31254;51.680;5.394;2022-07-03T14:51:19;2.95;;;0.90;;
45522;SDS011;31254;51.680;5.394;2022-07-03T14:53:46;3.50;;;1.25;;
45522;SDS011;31254;51.680;5.394;2022-07-03T14:56:16;5.43;;;1.00;;
45522;SDS011;31254;51.680;5.394;2022-07-03T14:58:44;8.55;;;0.88;;
45522;SDS011;31254;51.680;5.394;2022-07-03T15:01:19;5.18;;;0.73;;
45522;SDS011;31254;51.680;5.394;2022-07-03T15:03:52;2.17;;;0.80;;
45522;SDS011;31254;51.680;5.394;2022-07-03T15:06:28;3.05;;;0.77;;
45522;SDS011;31254;51.680;5.394;2022-07-03T15:08:57;3.38;;;0.70;;
45522;SDS011;31254;51.680;5.394;2022-07-03T15:11:50;2.00;;;0.60;;
45522;SDS011;31254;51.680;5.394;2022-07-03T15:14:37;2.63;;;0.77;;
45522;SDS011;31254;51.680;5.394;2022-07-03T15:17:08;1.95;;;0.73;;
45522;SDS011;31254;51.680;5.394;2022-07-03T15:19:35;2.05;;;0.68;;
45522;SDS011;31254;51.680;5.394;2022-07-03T15:22:04;1.52;;;0.60;;
45522;SDS011;31254;51.680;5.394;2022-07-03T15:24:32;2.17;;;0.93;;
45522;SDS011;31254;51.680;5.394;2022-07-03T15:27:04;3.83;;;0.57;;
45522;SDS011;31254;51.680;5.394;2022-07-03T15:29:31;1.77;;;0.52;;
45522;SDS011;31254;51.680;5.394;2022-07-03T15:32:00;1.88;;;0.85;;
45522;SDS011;31254;51.680;5.394;2022-07-03T15:34:29;1.88;;;0.60;;
45522;SDS011;31254;51.680;5.394;2022-07-03T15:40:08;1.80;;;0.70;;
45522;SDS011;31254;51.680;5.394;2022-07-03T15:47:57;2.03;;;0.50;;
45522;SDS011;31254;51.680;5.394;2022-07-03T15:52:59;4.13;;;0.70;;
45522;SDS011;31254;51.680;5.394;2022-07-03T15:55:27;2.95;;;0.50;;
45522;SDS011;31254;51.680;5.394;2022-07-03T15:58:05;3.35;;;0.50;;
45522;SDS011;31254;51.680;5.394;2022-07-03T16:00:34;5.82;;;0.47;;
45522;SDS011;31254;51.680;5.394;2022-07-03T16:03:09;2.35;;;0.47;;
45522;SDS011;31254;51.680;5.394;2022-07-03T16:05:42;3.30;;;0.60;;
45522;SDS011;31254;51.680;5.394;2022-07-03T16:08:12;1.05;;;0.70;;
45522;SDS011;31254;51.680;5.394;2022-07-03T16:10:40;2.35;;;0.60;;
45522;SDS011;31254;51.680;5.394;2022-07-03T16:13:07;5.18;;;0.60;;
45522;SDS011;31254;51.680;5.394;2022-07-03T16:15:37;2.72;;;0.60;;
45522;SDS011;31254;51.680;5.394;2022-07-03T16:18:11;1.55;;;0.43;;
45522;SDS011;31254;51.680;5.394;2022-07-03T16:20:39;2.50;;;0.52;;
45522;SDS011;31254;51.680;5.394;2022-07-03T16:23:07;3.22;;;0.65;;
45522;SDS011;31254;51.680;5.394;2022-07-03T16:25:36;0.88;;;0.22;;